Decoded Metar for KAHN (ATHENS in GA, USA) (IATA:AHN) | Meteo·Mobile Aviation Weather
aviador You're here:

KAHN Decoded Metar

ATHENS in GA, USA
Report Time2019-04-20 10:51:00
UTC Time2019-04-20 11:04:29
Flight Rules mvfr MVFR
WindVRB at 03 kt
Visibility9999 m
Phenomena:N/A
Clouds:Scattered 020 Hf
Broken 028 Hf
Overcast 036 Hf
Expected CloudBase > 1,600 ft AGL from Temp-Dew spread
Ceiling2,800 ft
Temp08°C (ISA -5)
Dew Point04°C (76% RH)
AAT5.6°C
QNH1005 hPa
Density Alt538 ft
Elevation801 ft
Report Wrong Elevation
Raw Report
METAR KAHN 201051Z AUTO VRB03KT 10SM SCT020 BKN028 OVC036 08/04 A2967
RMK AO2 SLP046 T00780044=

Extra information for KAHN:More info

Metar Taf Metar & Taf Last 4 Metars F.Rules Stats Wind Profile Meteogram Temp Stats Airport Information Weather charts Add Link Nearby VenuesMetar ALERT Operation Metar Decoded Social comments

AIRNAV info for KAHN